Latest Weather Observations for Viewbank

IDV60801

Issued at 4:31 pm EDT Friday 6 March 2015 (issued every 30 minutes, with the page automatically refreshed every 10 minutes)

About weather observations | Map of weather stations | Latest weather observations for VIC | Other Formats
Station Details ID: 086068 Name: VIEWBANK Lat: -37.74 Lon: 145.10 Height: 66.1 m
Data from the previous 72 hours. | See also: Recent months at Viewbank
Date/Time
EDT
Temp
°C
App
Temp
°C
Dew
Point
Rel
Hum
%
Delta-T
°C
Wind Press
QNH
hPa
Press
MSL
hPa
Rain
since 9 am
mm
Dir
 
Spd
km/h
Gust
km/h
Spd
kts
Gust
kts
06/04:30pm 18.8 15.9 12.8 68 3.4 SSW 20 39 11 21 1010.6 1010.5 0.0
06/04:00pm 18.3 16.0 14.0 76 2.5 SSW 19 33 10 18 1010.7 1010.6 0.0
06/03:30pm 19.0 15.8 13.2 69 3.3 SSW 22 35 12 19 1010.8 1010.7 0.0
06/03:00pm 19.9 17.3 13.1 65 3.9 SSW 19 26 10 14 1011.0 1010.9 0.0
06/02:30pm 19.7 17.4 12.9 65 3.9 SSW 17 26 9 14 1010.9 1010.8 0.0
06/02:00pm 19.2 16.1 13.4 69 3.3 SSW 22 37 12 20 1010.9 1010.8 0.0
06/01:30pm 19.1 15.4 12.6 66 3.7 SSW 24 37 13 20 1010.9 1010.8 0.0
06/01:00pm 20.1 17.4 12.8 63 4.1 SW 19 28 10 15 1011.0 1010.9 0.0
06/12:30pm 19.6 17.2 12.8 65 3.8 SW 17 33 9 18 1011.0 1010.9 0.0
06/12:00pm 18.6 15.5 12.1 66 3.6 WSW 20 37 11 20 1011.1 1011.0 0.0
06/11:30am 18.0 14.9 12.2 69 3.2 WSW 20 37 11 20 1011.3 1011.2 0.0
06/11:00am 17.6 15.5 12.3 71 2.9 WSW 15 26 8 14 1011.3 1011.2 0.0
06/10:30am 17.0 13.0 11.9 72 2.8 WSW 24 37 13 20 1011.2 1011.1 0.0
06/10:00am 16.6 13.3 11.5 72 2.8 WSW 20 39 11 21 1011.1 1011.0 0.0
06/09:30am 16.1 12.2 10.8 71 2.8 W 22 43 12 23 1011.0 1010.9 0.0
06/09:00am 15.6 12.0 10.4 71 2.8 W 20 32 11 17 1011.0 1010.9 0.0
06/08:30am 15.1 11.8 9.7 70 2.8 WSW 17 30 9 16 1010.8 1010.7 0.0
06/08:00am 15.1 11.1 9.2 68 3.0 WSW 20 35 11 19 1010.9 1010.8 0.0
06/07:30am 15.0 11.1 8.5 65 3.3 W 19 32 10 17 1010.5 1010.4 0.0
06/07:00am 14.8 10.6 8.3 65 3.3 W 20 33 11 18 1010.3 1010.2 0.0
06/06:30am 14.6 10.9 8.1 65 3.3 W 17 28 9 15 1010.4 1010.3 0.0
06/06:00am 14.5 10.7 7.5 63 3.5 W 17 30 9 16 1010.6 1010.5 0.0
06/05:30am 14.5 10.7 7.5 63 3.5 WNW 17 30 9 16 1010.9 1010.8 0.0
06/05:00am 14.4 10.2 7.5 63 3.4 W 19 32 10 17 1010.9 1010.8 0.0
06/04:30am 14.3 10.8 7.4 63 3.4 W 15 24 8 13 1011.4 1011.3 0.0
06/04:00am 13.9 11.4 6.7 62 3.5 WNW 9 17 5 9 1011.9 1011.8 0.0
06/03:30am 13.6 10.6 6.2 61 3.5 NW 11 19 6 10 1012.4 1012.2 0.0
06/03:00am 13.6 10.6 6.0 60 3.6 WNW 11 17 6 9 1012.9 1012.7 0.0
06/02:30am 13.5 10.9 5.9 60 3.6 WNW 9 19 5 10 1013.3 1013.1 0.0
06/02:00am 13.4 9.9 5.6 59 3.7 WNW 13 24 7 13 1013.6 1013.4 0.0
06/01:30am 13.4 10.2 5.3 58 3.8 W 11 20 6 11 1014.0 1013.8 0.0
06/01:00am 14.0 9.7 5.4 56 4.1 W 17 26 9 14 1014.1 1013.9 0.0
06/12:30am 14.1 10.2 5.5 56 4.1 W 15 26 8 14 1014.1 1013.9 0.0
06/12:00am 14.2 9.9 5.3 55 4.2 W 17 28 9 15 1014.4 1014.2 0.0
 
Date/Time
EDT
Temp
°C
App
Temp
°C
Dew
Point
Rel
Hum
%
Delta-T
°C
Wind Press
QNH
hPa
Press
MSL
hPa
Rain
since 9 am
mm
Dir
 
Spd
km/h
Gust
km/h
Spd
kts
Gust
kts
05/11:30pm 14.3 10.0 5.4 55 4.2 W 17 32 9 17 1014.8 1014.6 0.0
05/11:00pm 14.0 10.5 5.4 56 4.1 W 13 20 7 11 1014.9 1014.7 0.0
05/10:30pm 14.3 10.8 5.4 55 4.2 W 13 24 7 13 1015.3 1015.1 0.0
05/10:00pm 14.9 10.1 4.6 50 4.8 W 19 28 10 15 1015.4 1015.2 0.0
05/09:30pm 15.0 10.5 4.1 48 5.0 WSW 17 30 9 16 1015.4 1015.2 0.0
05/09:00pm 15.3 9.8 4.1 47 5.2 WSW 22 39 12 21 1015.2 1015.0 0.0
05/08:30pm 15.8 10.5 4.8 48 5.2 WSW 22 37 12 20 1015.1 1014.9 0.0
05/08:00pm 16.2 11.4 2.6 40 6.1 WSW 17 28 9 15 1015.0 1014.8 0.0
05/07:30pm 16.6 11.5 4.3 44 5.8 SW 20 32 11 17 1015.0 1014.8 0.0
05/07:00pm 16.4 12.8 6.8 53 4.7 SW 15 20 8 11 1015.2 1015.0 0.0
05/06:30pm 16.6 12.5 6.4 51 5.0 SSW 17 26 9 14 1015.3 1015.1 0.0
05/06:00pm 17.5 13.5 6.7 49 5.4 SSW 17 28 9 15 1015.4 1015.2 0.0
05/05:30pm 18.0 14.0 6.5 47 5.7 SSW 17 30 9 16 1015.5 1015.3 0.0
05/05:00pm 18.4 13.9 6.3 45 6.0 SSW 19 33 10 18 1015.6 1015.4 0.0
05/04:30pm 19.1 15.7 5.9 42 6.5 S 13 28 7 15 1015.7 1015.5 0.0
05/04:00pm 18.3 13.5 5.8 44 6.1 SSW 20 32 11 17 1016.0 1015.8 0.0
05/03:30pm 18.0 13.5 4.2 40 6.5 SSW 17 32 9 17 1016.5 1016.3 0.0
05/03:00pm 17.9 12.9 4.8 42 6.3 SSW 20 39 11 21 1016.5 1016.3 0.0
05/02:30pm 18.7 13.3 4.5 39 6.8 SW 22 35 12 19 1016.7 1016.5 0.0
05/02:00pm 17.2 11.4 4.2 42 6.1 SW 24 39 13 21 1017.1 1016.9 0.0
05/01:30pm 17.4 11.5 4.0 41 6.3 SW 24 41 13 22 1017.3 1017.1 0.0
05/01:00pm 17.9 12.1 4.5 41 6.4 SW 24 39 13 21 1017.5 1017.3 0.0
05/12:30pm 17.3 11.3 5.3 45 5.8 SW 26 41 14 22 1017.9 1017.7 0.0
05/12:00pm 17.4 11.1 5.7 46 5.7 SSW 28 52 15 28 1017.7 1017.5 0.0
05/11:55am 16.8 10.7 4.8 45 5.7 SW 26 52 14 28 1017.7 1017.5 0.0
05/11:30am 15.9 10.1 6.1 52 4.8 SW 26 43 14 23 1017.8 1017.6 0.0
05/11:00am 15.6 8.4 5.2 50 4.9 SW 32 54 17 29 1017.5 1017.3 0.0
05/10:35am 15.5 9.1 5.1 50 4.9 SSW 28 50 15 27 1017.2 1017.0 0.0
05/10:30am 15.7 9.6 6.4 54 4.5 SW 28 50 15 27 1017.3 1017.1 0.0
05/10:14am 15.1 8.7 5.3 52 4.7 SSW 28 46 15 25 1017.1 1016.9 0.0
05/10:00am 15.2 9.2 5.4 52 4.7 SW 26 48 14 26 1017.1 1016.9 0.0
05/09:48am 14.3 7.8 4.6 52 4.5 SW 28 50 15 27 1016.8 1016.6 0.0
05/09:30am 14.6 8.1 4.9 52 4.5 SSW 28 44 15 24 1016.5 1016.3 0.0
05/09:13am 14.4 7.5 4.7 52 4.5 SW 30 48 16 26 1016.4 1016.2 0.0
05/09:00am 14.2 9.6 5.6 56 4.1 WSW 19 43 10 23 1016.1 1015.9 0.6
05/08:30am 13.3 9.1 5.5 59 3.7 SW 17 28 9 15 1015.9 1015.7 0.6
05/08:00am 12.4 7.5 4.9 60 3.5 SW 20 30 11 16 1015.3 1015.1 0.6
05/07:30am 11.8 7.7 4.5 61 3.3 WSW 15 26 8 14 1014.7 1014.5 0.6
05/07:00am 11.8 6.9 4.3 60 3.4 SW 19 30 10 16 1014.4 1014.2 0.6
05/06:30am 12.0 7.0 4.5 60 3.4 WSW 20 35 11 19 1014.3 1014.1 0.6
05/06:00am 12.1 6.9 5.3 63 3.2 WSW 22 39 12 21 1014.4 1014.2 0.6
05/05:30am 12.4 6.4 5.3 62 3.3 WSW 26 43 14 23 1013.7 1013.5 0.6
05/05:00am 12.8 6.1 5.7 62 3.3 WSW 30 50 16 27 1012.9 1012.7 0.6
05/04:30am 13.8 7.0 7.8 67 3.0 WSW 33 57 18 31 1012.4 1012.2 0.6
05/04:00am 14.0 7.6 9.2 73 2.5 WSW 33 56 18 30 1011.7 1011.6 0.6
05/03:30am 14.5 8.5 10.9 79 1.9 WSW 33 56 18 30 1010.8 1010.7 0.6
05/03:01am 14.1 10.0 13.8 98 0.2 WSW 28 46 15 25 1010.6 1010.5 0.6
05/03:00am 14.0 9.4 13.5 97 0.3 WSW 30 46 16 25 1010.6 1010.5 0.6
05/02:47am 14.9 10.5 12.9 88 1.1 W 28 54 15 29 1010.1 1010.0 0.2
05/02:30am 16.5 12.3 11.0 70 3.0 W 24 44 13 24 1009.9 1009.8 0.0
05/02:16am 17.2 12.0 10.1 63 3.8 W 28 48 15 26 1009.8 1009.7 0.0
05/02:00am 18.2 13.9 9.3 56 4.7 W 22 41 12 22 1009.8 1009.7 0.0
05/01:30am 18.5 14.5 9.0 54 5.0 WNW 20 35 11 19 1009.7 1009.6 0.0
05/01:00am 18.4 14.4 8.9 54 5.0 W 20 33 11 18 1009.6 1009.5 0.0
05/12:30am 19.1 14.6 8.7 51 5.4 W 22 43 12 23 1010.0 1009.9 0.0
05/12:00am 18.8 15.4 9.0 53 5.1 W 17 28 9 15 1009.6 1009.5 0.0
 
Date/Time
EDT
Temp
°C
App
Temp
°C
Dew
Point
Rel
Hum
%
Delta-T
°C
Wind Press
QNH
hPa
Press
MSL
hPa
Rain
since 9 am
mm
Dir
 
Spd
km/h
Gust
km/h
Spd
kts
Gust
kts
04/11:30pm 19.1 16.1 9.3 53 5.2 W 15 26 8 14 1009.6 1009.5 0.0
04/11:00pm 19.7 16.0 9.3 51 5.5 W 19 32 10 17 1009.6 1009.5 0.0
04/10:30pm 20.0 16.9 9.0 49 5.8 W 15 28 8 15 1009.8 1009.7 0.0
04/10:00pm 20.4 17.3 8.7 47 6.2 W 15 28 8 15 1009.8 1009.7 0.0
04/09:30pm 20.6 17.1 8.9 47 6.2 WSW 17 28 9 15 1009.8 1009.7 0.0
04/09:00pm 20.6 18.4 9.5 49 5.9 W 11 24 6 13 1009.5 1009.4 0.0
04/08:30pm 20.3 19.5 11.0 55 5.1 SW 6 7 3 4 1009.3 1009.2 0.0
04/08:00pm 20.9 20.4 10.7 52 5.6 S 4 7 2 4 1009.4 1009.3 0.0
04/07:30pm 21.8 20.4 10.9 50 6.0 S 9 13 5 7 1009.5 1009.4 0.0
04/07:00pm 22.6 19.9 10.4 46 6.7 SSW 15 22 8 12 1009.7 1009.6 0.0
04/06:30pm 23.1 20.5 9.5 42 7.4 SW 13 19 7 10 1009.7 1009.6 0.0
04/06:00pm 23.5 20.3 9.9 42 7.5 SSW 17 22 9 12 1009.9 1009.8 0.0
04/05:30pm 24.3 21.1 9.8 40 8.0 SSW 17 26 9 14 1010.1 1010.0 0.0
04/05:00pm 25.4 22.8 9.3 36 8.8 SW 13 19 7 10 1010.2 1010.1 0.0
04/04:30pm 25.1 23.1 8.6 35 8.9 W 9 19 5 10 1010.4 1010.3 0.0
04/04:00pm 24.2 21.8 8.6 37 8.4 W 11 19 6 10 1010.9 1010.8 0.0
04/03:30pm 24.2 21.8 8.6 37 8.4 WSW 11 24 6 13 1011.3 1011.2 0.0
04/03:00pm 23.7 21.0 8.9 39 8.0 WSW 13 19 7 10 1012.1 1012.0 0.0
04/02:30pm 22.5 20.1 8.6 41 7.4 WSW 11 20 6 11 1012.7 1012.5 0.0
04/02:00pm 22.8 20.9 8.9 41 7.4 W 9 17 5 9 1013.1 1012.9 0.0
04/01:30pm 21.4 20.2 9.6 47 6.4 ENE 6 11 3 6 1013.6 1013.4 0.0
04/01:00pm 20.5 18.6 9.1 48 6.0 SW 9 13 5 7 1014.2 1014.0 0.0
04/12:30pm 20.1 17.7 9.9 52 5.5 SSW 13 24 7 13 1014.9 1014.7 0.0
04/12:00pm 19.5 17.2 10.5 56 4.9 SSW 13 22 7 12 1015.2 1015.0 0.0
04/11:30am 19.9 17.3 9.2 50 5.7 SW 13 20 7 11 1015.4 1015.2 0.0
04/11:00am 18.5 15.8 9.0 54 5.0 WSW 13 24 7 13 1015.6 1015.4 0.0
04/10:30am 17.9 15.2 9.0 56 4.6 SW 13 22 7 12 1015.5 1015.3 0.0
04/10:00am 17.7 15.0 9.1 57 4.5 SW 13 24 7 13 1015.5 1015.3 0.0
04/09:30am 16.8 14.1 9.0 60 4.0 WSW 13 19 7 10 1015.6 1015.4 0.0
04/09:00am 15.4 14.8 11.8 79 2.0 SW 6 9 3 5 1015.8 1015.6 0.0
04/08:30am 13.7 13.8 12.6 93 0.6 ESE 4 7 2 4 1015.7 1015.5 0.0
04/08:00am 12.5 11.9 12.3 99 0.1 ESE 7 7 4 4 1015.5 1015.3 0.0
04/07:30am 12.6 12.5 12.1 97 0.3 ESE 4 7 2 4 1015.1 1014.9 0.0
04/07:00am 12.9 13.0 11.6 92 0.7 ESE 2 7 1 4 1014.9 1014.7 0.0
04/06:30am 13.4 13.9 11.6 89 1.0 CALM 0 4 0 2 1014.9 1014.7 0.0
04/06:00am 13.3 13.5 12.0 92 0.7 ESE 2 6 1 3 1014.9 1014.7 0.0
04/05:30am 13.3 12.8 12.5 95 0.4 ESE 7 7 4 4 1014.9 1014.7 0.0
04/05:00am 13.6 13.1 12.7 94 0.5 ESE 7 9 4 5 1014.9 1014.7 0.0
04/04:30am 13.8 14.4 12.0 89 1.0 CALM 0 0 0 0 1014.9 1014.7 0.0
04/04:00am 13.7 14.0 12.3 91 0.8 ESE 2 6 1 3 1014.9 1014.7 0.0
04/03:30am 13.5 14.1 11.9 90 0.9 CALM 0 0 0 0 1015.0 1014.8 0.0
04/03:00am 14.2 13.6 11.7 85 1.3 ESE 6 7 3 4 1015.4 1015.2 0.0
04/02:30am 13.8 14.4 11.8 88 1.1 CALM 0 0 0 0 1015.6 1015.4 0.0
04/02:00am 13.7 14.1 11.4 86 1.2 CALM 0 4 0 2 1015.8 1015.6 0.0
04/01:30am 14.3 14.7 11.3 82 1.6 CALM 0 0 0 0 1015.9 1015.7 0.0
04/01:00am 14.5 14.9 11.3 81 1.7 CALM 0 0 0 0 1016.2 1016.0 0.0
04/12:30am 14.8 15.1 11.0 78 2.0 CALM 0 0 0 0 1016.4 1016.2 0.0
04/12:00am 15.2 14.1 10.8 75 2.3 S 7 11 4 6 1016.5 1016.3 0.0
 
Date/Time
EDT
Temp
°C
App
Temp
°C
Dew
Point
Rel
Hum
%
Delta-T
°C
Wind Press
QNH
hPa
Press
MSL
hPa
Rain
since 9 am
mm
Dir
 
Spd
km/h
Gust
km/h
Spd
kts
Gust
kts
03/11:30pm 15.6 14.5 10.8 73 2.6 S 7 11 4 6 1016.7 1016.5 0.0
03/11:00pm 15.9 14.4 10.4 70 2.9 SSW 9 15 5 8 1016.7 1016.5 0.0
03/10:30pm 16.5 14.8 9.9 65 3.5 SSW 9 15 5 8 1016.8 1016.6 0.0
03/10:00pm 17.3 15.3 10.0 62 3.9 S 11 17 6 9 1016.7 1016.5 0.0
03/09:30pm 17.9 15.7 9.3 57 4.5 S 11 19 6 10 1016.3 1016.1 0.0
03/09:00pm 18.1 16.7 11.0 63 3.8 SW 9 11 5 6 1016.0 1015.8 0.0
03/08:30pm 18.9 17.4 10.5 58 4.5 SW 9 15 5 8 1015.6 1015.4 0.0
03/08:00pm 20.2 17.6 9.5 50 5.7 SSW 13 22 7 12 1015.1 1014.9 0.0
03/07:30pm 21.4 18.5 9.6 47 6.4 SSW 15 20 8 11 1014.7 1014.5 0.0
03/07:00pm 22.4 19.8 9.2 43 7.1 SSW 13 19 7 10 1014.7 1014.5 0.0
03/06:30pm 22.5 19.8 9.0 42 7.2 S 13 20 7 11 1014.7 1014.5 0.0
03/06:00pm 23.0 19.9 8.7 40 7.6 SSW 15 22 8 12 1014.6 1014.4 0.0
03/05:30pm 23.1 20.4 9.1 41 7.5 S 13 22 7 12 1014.7 1014.5 0.0
03/05:00pm 23.4 20.4 9.4 41 7.6 SW 15 20 8 11 1014.9 1014.7 0.0

Other Formats:

Comma delimited format used in spreadsheet applications
http://www.bom.gov.au/fwo/IDV60801/IDV60801.95874.axf

JavaScript Object Notation format (JSON) in row-major order
http://www.bom.gov.au/fwo/IDV60801/IDV60801.95874.json